ADDS METAR Data INFO
IDs: Format: Raw Decoded Include TAF

Data at: 1543 UTC 25 Jun 2017

EDDV 251520Z 27012KT 230V300 9999 -SHRA SCT015 BKN040 18/15 Q1010 NOSIG

TAF EDDV 251100Z 2512/2612 25010KT 9999 FEW025 BKN040
  PROB30
  TEMPO 2512/2515 25015G25KT
  BECMG 2516/2518 24005KT
  TEMPO 2601/2606 BKN007
  PROB30
  TEMPO 2601/2605 4000 -RADZ
  BECMG 2602/2604 27010KT



Page loaded:  15:43 UTC  |   08:43 AM Pacific  |   09:43 AM Mountain  |   10:43 AM Central  |   11:43 AM Eastern

 

ADVISORIES

FORECASTS

FORECASTS

OBSERVATIONS

USER TOOLS

ABOUT US